Time;durP1;ratioP1;P1;durP2;ratioP2;P2;SDS_P1;SDS_P2;PMS_P1;PMS_P2;Temp;Humidity;BMP_temperature;BMP_pressure;BME280_temperature;BME280_humidity;BME280_pressure;Samples;Min_cycle;Max_cycle;Signal;HPM_P1;HPM_P2
2023/02/26 00:02:47;;;;;;;4.03;2.03;;;;;;;5.60;47.50;97328.88;8381638;28;20229;-74
2023/02/26 00:06:54;;;;;;;2.47;1.40;;;;;;;5.38;47.76;97341.59;8381681;28;20284;-74
2023/02/26 00:11:01;;;;;;;3.03;1.53;;;;;;;5.53;47.39;97341.09;8381478;28;20233;-73
2023/02/26 00:15:05;;;;;;;2.97;1.23;;;;;;;5.31;46.33;97346.09;8381021;28;20292;-73
2023/02/26 00:19:10;;;;;;;2.20;1.10;;;;;;;5.09;46.04;97336.53;8381124;28;20236;-73
2023/02/26 00:23:14;;;;;;;2.73;1.10;;;;;;;4.95;45.81;97332.72;8381221;28;20221;-73
2023/02/26 00:27:16;;;;;;;2.40;1.30;;;;;;;5.04;45.30;97325.56;8380911;28;20413;-73
2023/02/26 00:31:23;;;;;;;1.80;1.20;;;;;;;5.33;45.43;97359.75;8363457;28;20224;-73
2023/02/26 00:35:28;;;;;;;4.20;1.23;;;;;;;5.28;44.96;97338.50;8380957;28;20562;-73
2023/02/26 00:39:37;;;;;;;2.33;1.17;;;;;;;5.43;45.22;97366.25;8380241;28;20264;-73
2023/02/26 00:43:40;;;;;;;3.47;1.23;;;;;;;5.22;45.13;97324.16;8379770;28;20283;-74
2023/02/26 00:47:48;;;;;;;1.77;1.10;;;;;;;5.28;44.95;97366.75;8380218;28;20223;-73
2023/02/26 00:51:56;;;;;;;3.27;1.27;;;;;;;5.28;44.81;97312.84;8380290;28;20255;-74
2023/02/26 00:55:59;;;;;;;2.80;1.20;;;;;;;5.36;44.73;97359.63;8380257;28;20430;-73
2023/02/26 01:00:04;;;;;;;2.23;1.30;;;;;;;5.24;45.63;97363.44;8380047;28;20237;-73
2023/02/26 01:04:08;;;;;;;2.57;0.97;;;;;;;5.28;45.23;97362.44;8380319;28;20287;-73
2023/02/26 01:08:15;;;;;;;2.60;1.20;;;;;;;4.94;45.73;97313.94;8380078;28;20418;-73
2023/02/26 01:12:18;;;;;;;2.23;1.17;;;;;;;4.81;45.04;97297.25;8379579;28;20228;-73
2023/02/26 01:16:24;;;;;;;2.37;0.90;;;;;;;4.81;45.41;97343.44;8379447;28;20233;-74
2023/02/26 01:20:31;;;;;;;2.33;1.17;;;;;;;4.85;45.49;97358.69;8379750;28;20229;-74
2023/02/26 01:24:37;;;;;;;2.93;1.03;;;;;;;4.78;45.52;97335.81;8379742;28;20247;-74
2023/02/26 01:28:40;;;;;;;2.60;1.00;;;;;;;4.73;45.79;97353.09;8379579;28;20459;-74
2023/02/26 01:32:44;;;;;;;2.07;0.93;;;;;;;4.27;45.70;97343.31;8379171;28;20441;-74
2023/02/26 01:36:52;;;;;;;3.53;1.00;;;;;;;4.85;45.71;97378.38;8379459;28;20229;-73
2023/02/26 01:41:12;;;;;;;3.33;1.00;;;;;;;4.62;45.34;97379.06;8379520;28;20555;-73
2023/02/26 01:45:17;;;;;;;1.93;0.80;;;;;;;4.66;45.76;97378.09;8379590;28;20228;-73
2023/02/26 01:49:20;;;;;;;2.87;1.00;;;;;;;4.81;45.37;97366.53;8379676;28;20229;-74
2023/02/26 01:53:25;;;;;;;1.57;0.87;;;;;;;5.06;45.28;97389.69;8379185;28;20529;-73
2023/02/26 01:57:29;;;;;;;3.13;1.17;;;;;;;4.92;45.58;97384.16;8385813;28;20221;-73
2023/02/26 02:01:32;;;;;;;1.80;0.90;;;;;;;4.93;45.62;97385.81;8385773;28;20229;-73
2023/02/26 02:05:40;;;;;;;2.97;0.83;;;;;;;4.87;45.61;97385.16;8385874;28;20221;-74
2023/02/26 02:09:43;;;;;;;2.93;0.97;;;;;;;4.65;45.51;97361.03;8385202;28;20233;-74
2023/02/26 02:13:59;;;;;;;3.57;0.90;;;;;;;4.87;45.54;97387.72;8385150;28;20264;-74
2023/02/26 02:18:07;;;;;;;2.00;0.90;;;;;;;4.76;45.90;97396.59;8385180;28;20232;-73
2023/02/26 02:22:24;;;;;;;3.57;1.20;;;;;;;4.61;45.99;97375.66;8385367;28;20224;-73
2023/02/26 02:26:40;;;;;;;2.13;1.00;;;;;;;4.39;46.00;97342.13;8384955;28;20243;-74
2023/02/26 02:30:56;;;;;;;1.00;0.80;;;;;;;4.60;45.98;97389.38;8384565;28;20217;-73
2023/02/26 02:35:05;;;;;;;2.47;0.80;;;;;;;4.72;45.79;97387.31;8384671;28;20240;-74
2023/02/26 02:39:10;;;;;;;2.87;1.00;;;;;;;4.51;45.95;97384.50;8384834;28;20528;-73
2023/02/26 02:43:14;;;;;;;2.40;1.00;;;;;;;4.37;45.81;97359.28;8384378;28;20418;-74
2023/02/26 02:47:19;;;;;;;1.70;0.90;;;;;;;4.62;45.61;97399.59;8384026;28;20419;-73
2023/02/26 02:51:25;;;;;;;2.77;0.80;;;;;;;4.27;45.15;97375.81;8383767;28;20221;-73
2023/02/26 02:55:30;;;;;;;2.67;1.07;;;;;;;4.46;45.67;97401.78;8383747;28;20267;-73
2023/02/26 02:59:35;;;;;;;2.87;0.90;;;;;;;4.42;44.97;97406.16;8383590;28;20225;-72
2023/02/26 03:03:45;;;;;;;2.43;0.90;;;;;;;4.07;45.45;97387.47;8383659;28;20248;-73
2023/02/26 03:07:53;;;;;;;2.37;0.77;;;;;;;3.82;44.75;97414.63;8382233;28;20217;-75
2023/02/26 03:11:57;;;;;;;1.97;0.83;;;;;;;4.28;44.65;97415.94;8382833;28;20425;-73
2023/02/26 03:16:08;;;;;;;2.73;0.70;;;;;;;4.26;45.19;97423.66;8382858;28;20237;-74
2023/02/26 03:20:21;;;;;;;2.10;1.17;;;;;;;3.82;46.01;97427.44;8382856;28;20319;-74
2023/02/26 03:24:28;;;;;;;1.33;0.70;;;;;;;4.37;44.70;97433.63;8382580;28;20229;-74
2023/02/26 03:28:34;;;;;;;1.60;0.93;;;;;;;4.22;44.91;97432.31;8382611;28;20225;-73
2023/02/26 03:32:45;;;;;;;1.30;0.63;;;;;;;4.22;44.84;97432.31;8382056;28;20339;-73
2023/02/26 03:36:54;;;;;;;1.90;0.77;;;;;;;4.37;44.67;97431.06;8381665;28;20228;-73
2023/02/26 03:41:01;;;;;;;1.90;0.80;;;;;;;4.03;45.11;97447.34;8382366;28;20229;-73
2023/02/26 03:45:08;;;;;;;2.43;0.90;;;;;;;3.95;45.00;97417.72;8382073;28;20224;-74
2023/02/26 03:49:27;;;;;;;2.00;0.60;;;;;;;3.98;45.04;97451.78;8382321;28;20225;-73
2023/02/26 03:53:34;;;;;;;1.23;0.80;;;;;;;4.19;44.99;97457.19;8381712;28;20236;-74
2023/02/26 03:57:37;;;;;;;2.43;1.00;;;;;;;4.33;44.58;97457.66;8382048;28;20290;-73
2023/02/26 04:01:43;;;;;;;2.10;0.93;;;;;;;4.27;44.86;97468.94;8381316;28;20228;-74
2023/02/26 04:05:51;;;;;;;2.73;0.77;;;;;;;4.37;44.43;97473.81;8380764;28;20225;-74
2023/02/26 04:09:56;;;;;;;2.13;0.90;;;;;;;4.47;44.69;97475.22;8381344;28;20233;-73
2023/02/26 04:13:59;;;;;;;3.80;1.10;;;;;;;4.38;45.23;97493.44;8380411;28;20225;-74
2023/02/26 04:18:01;;;;;;;2.93;0.93;;;;;;;4.47;45.05;97499.16;8380517;28;20264;-74
2023/02/26 04:22:06;;;;;;;2.53;0.97;;;;;;;4.35;45.02;97502.03;8380692;28;20229;-74
2023/02/26 04:26:12;;;;;;;2.00;0.80;;;;;;;4.43;45.34;97497.53;8380571;28;20232;-74
2023/02/26 04:30:15;;;;;;;4.53;1.23;;;;;;;4.15;45.63;97451.34;8380356;28;20539;-74
2023/02/26 04:34:18;;;;;;;2.60;1.20;;;;;;;4.46;45.42;97500.03;8380286;28;20519;-73
2023/02/26 04:38:21;;;;;;;3.67;1.10;;;;;;;4.44;44.98;97504.38;8380218;28;20221;-74
2023/02/26 04:42:25;;;;;;;2.27;1.03;;;;;;;4.36;45.64;97506.31;8380119;28;20225;-74
2023/02/26 04:46:28;;;;;;;1.83;1.10;;;;;;;4.45;45.27;97512.91;8379343;28;20228;-73
2023/02/26 04:50:31;;;;;;;3.00;1.10;;;;;;;4.11;45.48;97467.66;8379682;28;20582;-74
2023/02/26 04:54:34;;;;;;;1.50;0.93;;;;;;;4.25;45.39;97516.84;8379383;28;20240;-74
2023/02/26 04:58:38;;;;;;;2.77;0.93;;;;;;;4.36;45.25;97523.38;8379331;28;20220;-73
2023/02/26 05:02:41;;;;;;;3.17;0.93;;;;;;;4.33;45.94;97532.00;8379262;28;20404;-73
2023/02/26 05:06:44;;;;;;;2.83;1.10;;;;;;;4.35;45.84;97535.38;8378692;28;20229;-74
2023/02/26 05:10:46;;;;;;;2.57;1.00;;;;;;;4.68;45.40;97540.47;8379167;28;20221;-74
2023/02/26 05:14:50;;;;;;;3.83;1.03;;;;;;;4.29;46.03;97544.06;8378801;28;20242;-74
2023/02/26 05:18:53;;;;;;;2.33;0.90;;;;;;;4.10;46.24;97553.13;8379001;28;20327;-74
2023/02/26 05:22:56;;;;;;;3.17;1.20;;;;;;;4.47;46.38;97542.75;8379146;28;20233;-73
2023/02/26 05:26:58;;;;;;;2.43;1.00;;;;;;;4.45;45.77;97544.50;8378959;28;20239;-73
2023/02/26 05:31:03;;;;;;;3.97;1.10;;;;;;;4.60;45.82;97553.50;8378189;28;20243;-74
2023/02/26 05:35:07;;;;;;;2.60;0.90;;;;;;;4.50;45.80;97523.88;8378786;28;20425;-74
2023/02/26 05:39:10;;;;;;;2.40;1.27;;;;;;;4.20;46.26;97541.72;8378895;28;20231;-74
2023/02/26 05:43:13;;;;;;;3.27;1.10;;;;;;;4.56;46.36;97561.34;8378734;28;20221;-74
2023/02/26 05:47:17;;;;;;;2.10;1.20;;;;;;;4.42;46.17;97554.03;8378758;28;20224;-74
2023/02/26 05:51:20;;;;;;;2.33;0.90;;;;;;;4.56;46.20;97569.88;8378352;28;20317;-74
2023/02/26 05:55:23;;;;;;;2.00;1.23;;;;;;;4.48;46.21;97564.09;8378572;28;20236;-74
2023/02/26 05:59:26;;;;;;;3.33;1.00;;;;;;;4.55;46.49;97586.16;8378391;28;20232;-74
2023/02/26 06:03:30;;;;;;;2.23;1.20;;;;;;;4.52;46.34;97580.25;8378037;28;20298;-74
2023/02/26 06:07:33;;;;;;;2.40;1.20;;;;;;;4.48;46.42;97608.53;8378419;28;20240;-74
2023/02/26 06:11:37;;;;;;;2.57;1.03;;;;;;;4.42;46.74;97605.31;8378357;28;20229;-74
2023/02/26 06:15:40;;;;;;;2.63;1.00;;;;;;;4.68;46.39;97613.16;8377985;28;20229;-74
2023/02/26 06:19:44;;;;;;;2.80;1.00;;;;;;;4.38;46.44;97616.50;8377437;28;20221;-74
2023/02/26 06:23:49;;;;;;;3.33;1.30;;;;;;;4.54;46.80;97604.97;8378332;28;20508;-74
2023/02/26 06:27:52;;;;;;;2.07;1.10;;;;;;;4.68;46.47;97627.69;8378078;28;20233;-73
2023/02/26 06:31:55;;;;;;;2.10;0.87;;;;;;;4.63;46.95;97624.44;8377930;28;20300;-74
2023/02/26 06:35:59;;;;;;;2.90;1.47;;;;;;;4.61;47.19;97621.06;8377692;28;20424;-75
2023/02/26 06:40:02;;;;;;;3.97;1.30;;;;;;;4.81;46.28;97646.19;8378209;28;20383;-74
2023/02/26 06:44:05;;;;;;;1.90;1.00;;;;;;;4.48;47.73;97649.56;8383114;28;20332;-75
2023/02/26 06:48:08;;;;;;;1.23;0.70;;;;;;;4.70;47.26;97660.13;8383668;28;20229;-75
2023/02/26 06:52:12;;;;;;;3.60;1.20;;;;;;;4.49;47.91;97663.22;8383656;28;20552;-75
2023/02/26 06:56:15;;;;;;;2.80;1.00;;;;;;;4.65;48.17;97666.25;8383608;28;20233;-75
2023/02/26 07:00:18;;;;;;;2.17;0.80;;;;;;;4.57;47.90;97678.41;8383513;28;20269;-74
2023/02/26 07:04:21;;;;;;;2.87;0.97;;;;;;;4.48;45.98;97488.00;8383385;28;20225;-75
2023/02/26 07:08:28;;;;;;;3.63;0.80;;;;;;;5.79;44.69;97640.00;8383555;28;20229;-75
2023/02/26 07:12:31;;;;;;;1.13;0.90;;;;;;;5.64;45.10;97700.41;8383039;28;20225;-75
2023/02/26 07:16:34;;;;;;;2.70;1.10;;;;;;;4.93;47.03;97704.03;8382864;28;20251;-75
2023/02/26 07:20:37;;;;;;;3.10;1.17;;;;;;;5.93;44.76;97689.25;8382614;28;20271;-75
2023/02/26 07:24:41;;;;;;;3.20;1.17;;;;;;;5.91;45.17;97710.75;8383000;28;20225;-75
2023/02/26 07:28:44;;;;;;;2.30;1.00;;;;;;;5.55;46.24;97718.63;8382305;28;20229;-75
2023/02/26 07:32:47;;;;;;;2.40;1.10;;;;;;;4.76;47.49;97735.22;8382256;28;20426;-75
2023/02/26 07:36:50;;;;;;;2.33;1.07;;;;;;;5.44;46.65;97732.59;8381921;28;20229;-75
2023/02/26 07:40:55;;;;;;;3.93;1.27;;;;;;;5.33;46.38;97724.38;8381910;28;20228;-75
2023/02/26 07:44:59;;;;;;;1.87;0.90;;;;;;;4.85;47.96;97733.28;8381832;28;20235;-75
2023/02/26 07:49:02;;;;;;;2.10;1.13;;;;;;;5.07;46.61;97701.94;8381425;28;20553;-75
2023/02/26 07:53:04;;;;;;;4.33;1.10;;;;;;;4.99;47.52;97755.19;8381025;28;20308;-74
2023/02/26 07:57:09;;;;;;;2.30;1.10;;;;;;;5.02;47.88;97770.53;8381412;28;20349;-74
2023/02/26 08:01:12;;;;;;;2.30;1.40;;;;;;;4.48;48.90;97753.88;8381188;28;20224;-75
2023/02/26 08:05:18;;;;;;;2.77;1.47;;;;;;;4.88;47.83;97734.94;8380912;28;20448;-75
2023/02/26 08:09:21;;;;;;;2.43;1.40;;;;;;;5.36;47.34;97779.94;8380989;28;20248;-74
2023/02/26 08:13:25;;;;;;;1.80;1.10;;;;;;;5.38;48.05;97780.72;8381299;28;20232;-74
2023/02/26 08:17:29;;;;;;;2.70;1.20;;;;;;;5.23;47.49;97787.09;8381108;28;20235;-74
2023/02/26 08:21:32;;;;;;;2.33;1.20;;;;;;;5.53;46.61;97779.47;8380956;28;20243;-74
2023/02/26 08:25:35;;;;;;;2.33;1.00;;;;;;;5.57;46.74;97788.78;8380638;28;20221;-74
2023/02/26 08:29:39;;;;;;;1.90;1.30;;;;;;;5.31;47.15;97795.44;8380594;28;20225;-74
2023/02/26 08:33:42;;;;;;;1.27;0.80;;;;;;;5.68;46.67;97795.31;8379575;28;20239;-75
2023/02/26 08:37:45;;;;;;;1.50;1.40;;;;;;;5.87;44.82;97799.94;8380296;28;20331;-74
2023/02/26 08:41:48;;;;;;;2.37;2.10;;;;;;;7.23;43.57;97806.97;8380050;28;20232;-75
2023/02/26 08:45:54;;;;;;;3.13;2.47;;;;;;;7.52;42.07;97807.69;8380367;28;20396;-74
2023/02/26 08:49:57;;;;;;;3.03;2.83;;;;;;;7.07;42.62;97813.53;8380184;28;20228;-74
2023/02/26 08:54:00;;;;;;;2.00;1.90;;;;;;;7.31;42.44;97822.16;8379957;28;20243;-74
2023/02/26 08:58:06;;;;;;;0.70;0.70;;;;;;;6.16;43.78;97835.13;8380134;28;20235;-74
2023/02/26 09:02:11;;;;;;;0.77;0.77;;;;;;;5.88;43.70;97842.75;8379725;28;20540;-74
2023/02/26 09:06:14;;;;;;;1.73;1.50;;;;;;;5.01;43.58;97841.56;8379060;28;20248;-74
2023/02/26 09:10:18;;;;;;;1.90;1.80;;;;;;;4.18;44.16;97850.25;8379754;28;20406;-74
2023/02/26 09:14:21;;;;;;;1.90;1.80;;;;;;;4.34;45.00;97863.56;8379889;28;20528;-74
2023/02/26 09:18:25;;;;;;;0.87;0.87;;;;;;;4.05;45.40;97867.56;8379553;28;20399;-74
2023/02/26 09:22:28;;;;;;;0.80;0.80;;;;;;;5.14;43.81;97883.19;8379642;28;20240;-73
2023/02/26 09:26:31;;;;;;;4.40;3.97;;;;;;;4.23;44.74;97881.75;8379286;28;20225;-74
2023/02/26 09:30:34;;;;;;;3.00;2.10;;;;;;;4.27;45.68;97880.81;8379427;28;20228;-74
2023/02/26 09:34:38;;;;;;;0.73;0.70;;;;;;;4.30;44.54;97897.00;8379509;28;20551;-73
2023/02/26 09:38:43;;;;;;;0.80;0.80;;;;;;;4.48;44.92;97882.94;8378488;28;20225;-74
2023/02/26 09:42:56;;;;;;;3.37;3.07;;;;;;;4.85;43.68;97842.78;8379188;28;20229;-74
2023/02/26 09:47:02;;;;;;;10.97;9.80;;;;;;;3.95;46.45;97910.47;8379269;28;20233;-74
2023/02/26 09:51:09;;;;;;;4.03;1.70;;;;;;;4.99;43.99;97911.75;8378503;28;20233;-73
2023/02/26 09:55:27;;;;;;;2.90;2.60;;;;;;;4.84;43.88;97915.53;8345903;28;20419;-73
2023/02/26 09:59:33;;;;;;;2.57;1.77;;;;;;;4.11;46.75;97924.69;8346049;28;20583;-74
2023/02/26 10:03:51;;;;;;;1.20;1.10;;;;;;;3.96;45.77;97932.69;8346018;28;20229;-74
2023/02/26 10:07:58;;;;;;;0.57;0.57;;;;;;;5.28;42.70;97932.47;8345674;28;20244;-73
2023/02/26 10:12:03;;;;;;;0.60;0.60;;;;;;;5.06;42.10;97929.56;8345825;28;20237;-73
2023/02/26 10:16:09;;;;;;;0.57;0.50;;;;;;;4.68;42.15;97935.50;8348247;28;20249;-73
2023/02/26 10:20:18;;;;;;;0.50;0.50;;;;;;;5.20;41.76;97944.66;8351910;28;20524;-73
2023/02/26 10:24:25;;;;;;;0.43;0.40;;;;;;;5.00;41.91;97937.38;8351848;28;20446;-74
2023/02/26 10:28:38;;;;;;;0.77;0.50;;;;;;;4.77;41.46;97953.28;8351542;28;20238;-74
2023/02/26 10:32:45;;;;;;;0.73;0.60;;;;;;;5.21;41.72;97958.31;8351516;28;20229;-74
2023/02/26 10:36:54;;;;;;;0.43;0.40;;;;;;;5.15;42.26;97964.44;8350828;28;20234;-75
2023/02/26 10:41:01;;;;;;;0.97;0.90;;;;;;;5.09;42.33;97967.97;8351295;28;20545;-74
2023/02/26 10:45:11;;;;;;;0.50;0.50;;;;;;;4.23;43.65;97923.63;8351349;28;20555;-74
2023/02/26 10:49:28;;;;;;;0.60;0.60;;;;;;;5.94;41.74;97981.41;8351015;28;20268;-74
2023/02/26 10:53:31;;;;;;;1.33;1.10;;;;;;;5.13;41.16;97986.72;8370365;28;20418;-74
2023/02/26 10:57:40;;;;;;;1.83;0.60;;;;;;;4.91;40.18;97942.72;8383766;28;20296;-74
2023/02/26 11:01:43;;;;;;;1.83;0.60;;;;;;;7.15;37.75;97951.44;8383517;28;20230;-75
2023/02/26 11:05:47;;;;;;;1.77;0.50;;;;;;;7.40;36.39;97964.38;8383513;28;20553;-74
2023/02/26 11:09:50;;;;;;;0.50;0.50;;;;;;;7.94;35.82;97969.53;8383275;28;20235;-74
2023/02/26 11:13:54;;;;;;;0.50;0.50;;;;;;;7.42;36.73;97957.47;8383509;28;20221;-74
2023/02/26 11:17:58;;;;;;;0.77;0.60;;;;;;;6.84;36.24;97967.81;8383057;28;20233;-74
2023/02/26 11:22:03;;;;;;;0.70;0.70;;;;;;;8.79;33.57;97962.28;8383221;28;22360;-74
2023/02/26 11:26:07;;;;;;;1.30;0.50;;;;;;;8.50;33.84;97960.75;8382879;28;20225;-74
2023/02/26 11:30:17;;;;;;;0.47;0.47;;;;;;;9.00;33.52;97981.28;8382128;28;20229;-74
2023/02/26 11:34:22;;;;;;;0.50;0.50;;;;;;;8.26;33.80;97973.59;8382855;28;20553;-74
2023/02/26 11:38:26;;;;;;;0.47;0.40;;;;;;;7.85;33.32;97978.44;8382279;28;20233;-74
2023/02/26 11:42:29;;;;;;;0.53;0.43;;;;;;;6.76;33.70;97989.50;8382150;28;20229;-73
2023/02/26 11:46:37;;;;;;;0.87;0.80;;;;;;;7.77;33.72;97977.84;8382228;28;20225;-73
2023/02/26 11:50:44;;;;;;;0.47;0.47;;;;;;;7.37;33.42;97974.81;8382024;28;20246;-74
2023/02/26 11:54:50;;;;;;;0.47;0.47;;;;;;;6.95;33.87;97964.94;8381387;28;20232;-74
2023/02/26 11:58:55;;;;;;;0.50;0.50;;;;;;;6.62;33.49;97970.16;8381616;28;20228;-74
2023/02/26 12:03:03;;;;;;;1.17;0.73;;;;;;;7.70;33.21;97963.47;8381784;28;20233;-74
2023/02/26 12:07:08;;;;;;;0.33;0.33;;;;;;;7.15;32.52;97920.53;8381902;28;20534;-74
2023/02/26 12:11:22;;;;;;;0.67;0.43;;;;;;;7.57;31.89;97958.69;8381768;28;20439;-71
2023/02/26 12:15:34;;;;;;;0.50;0.40;;;;;;;7.28;34.13;97949.34;8381465;28;20411;-71
2023/02/26 12:19:46;;;;;;;0.60;0.60;;;;;;;7.66;33.08;97970.47;8381129;28;20236;-75
2023/02/26 12:24:16;;;;;;;0.40;0.40;;;;;;;6.58;34.25;97970.28;8380667;28;20227;-74
2023/02/26 12:28:31;;;;;;;0.40;0.40;;;;;;;6.97;33.56;97970.03;8381121;28;20554;-73
2023/02/26 12:32:46;;;;;;;0.40;0.40;;;;;;;6.76;33.18;97964.63;8380994;28;20225;-73
2023/02/26 12:37:03;;;;;;;0.70;0.50;;;;;;;7.17;34.32;97972.84;8380551;28;20546;-72
2023/02/26 12:41:23;;;;;;;0.63;0.60;;;;;;;6.76;35.18;97979.22;8380135;28;20247;-73
2023/02/26 12:45:37;;;;;;;1.90;0.73;;;;;;;6.84;35.54;97988.41;8380357;28;20235;-74
2023/02/26 12:50:05;;;;;;;0.63;0.53;;;;;;;7.03;35.15;97983.56;8380145;28;20225;-73
2023/02/26 12:54:21;;;;;;;4.47;0.90;;;;;;;9.94;45.61;97991.38;8379695;28;20255;-74
2023/02/26 12:58:47;;;;;;;0.60;0.60;;;;;;;8.95;36.74;97975.47;8380148;28;20524;-77
2023/02/26 13:03:22;;;;;;;0.70;0.57;;;;;;;7.29;34.22;97981.94;8379793;28;20270;-77
2023/02/26 13:07:39;;;;;;;0.90;0.70;;;;;;;6.45;34.99;97908.03;8379955;28;20320;-77
2023/02/26 13:11:54;;;;;;;1.10;0.50;;;;;;;6.80;35.08;97989.38;8379227;28;20283;-79
2023/02/26 13:16:06;;;;;;;0.70;0.70;;;;;;;7.40;34.12;97997.88;8379234;28;20464;-79
2023/02/26 13:20:13;;;;;;;1.13;0.82;;;;;;;7.34;33.86;97967.16;8377667;28;20405;-77
2023/02/26 13:24:20;;;;;;;0.80;0.80;;;;;;;7.69;34.10;97993.56;8377308;28;20590;-76
2023/02/26 13:28:37;;;;;;;1.00;0.60;;;;;;;7.97;32.04;97995.22;8379581;28;20232;-74
2023/02/26 13:32:41;;;;;;;1.33;0.80;;;;;;;8.09;31.46;98001.72;8379446;28;20252;-75
2023/02/26 13:36:45;;;;;;;1.03;0.80;;;;;;;7.58;32.94;98005.97;8378930;28;20220;-75
2023/02/26 13:41:00;;;;;;;1.23;0.67;;;;;;;7.10;33.13;98004.84;8379285;28;20225;-75
2023/02/26 13:45:23;;;;;;;1.37;0.80;;;;;;;6.75;34.09;97998.97;8379282;28;20221;-76
2023/02/26 13:49:34;;;;;;;1.07;0.80;;;;;;;6.99;32.06;97963.13;8379429;28;20228;-74
2023/02/26 13:53:52;;;;;;;1.55;0.65;;;;;;;6.20;32.96;98003.03;8383726;28;20437;-75
2023/02/26 13:57:54;;;;;;;1.07;0.57;;;;;;;7.54;32.18;98010.38;8385626;28;20229;-75
2023/02/26 14:02:02;;;;;;;1.23;0.90;;;;;;;7.73;32.25;97979.69;8386600;28;20291;-76
2023/02/26 14:06:24;;;;;;;1.17;0.70;;;;;;;8.39;31.38;97992.91;8385707;28;20512;-74
2023/02/26 14:10:31;;;;;;;0.87;0.60;;;;;;;9.17;31.55;97996.16;8385526;28;20396;-74
2023/02/26 14:14:38;;;;;;;0.80;0.80;;;;;;;8.15;31.86;97997.19;8385040;28;20229;-75
2023/02/26 14:18:50;;;;;;;1.30;0.97;;;;;;;6.67;33.19;98012.94;8384723;28;20220;-76
2023/02/26 14:23:19;;;;;;;0.70;0.70;;;;;;;7.74;31.83;98007.13;8385189;28;20512;-74
2023/02/26 14:27:32;;;;;;;1.03;0.60;;;;;;;8.25;32.08;98010.63;8347299;28;20239;-74
2023/02/26 14:31:51;;;;;;;0.97;0.60;;;;;;;6.96;32.78;98022.41;8384642;28;20225;-74
2023/02/26 14:35:55;;;;;;;0.73;0.53;;;;;;;7.36;32.50;98019.50;8384698;28;20255;-74
2023/02/26 14:40:05;;;;;;;0.80;0.60;;;;;;;6.19;33.44;98020.22;8384022;28;20233;-74
2023/02/26 14:44:14;;;;;;;0.50;0.50;;;;;;;5.55;33.92;97976.34;8384319;28;20232;-75
2023/02/26 14:48:19;;;;;;;0.83;0.67;;;;;;;6.48;34.55;98039.19;8384560;28;20251;-74
2023/02/26 14:52:41;;;;;;;0.60;0.60;;;;;;;5.92;34.45;98051.69;8383597;28;20225;-74
2023/02/26 14:56:54;;;;;;;0.70;0.50;;;;;;;5.79;35.01;98034.03;8383150;28;20520;-75
2023/02/26 15:01:03;;;;;;;1.30;0.57;;;;;;;6.33;34.92;98042.16;8383031;28;20233;-74
2023/02/26 15:05:30;;;;;;;20.57;1.50;;;;;;;5.91;35.04;98074.00;8383376;28;20289;-74
2023/02/26 15:09:42;;;;;;;1.00;0.53;;;;;;;6.01;38.74;98064.38;8383517;28;20225;-75
2023/02/26 15:14:09;;;;;;;0.80;0.60;;;;;;;5.40;35.30;98072.56;8383035;28;20228;-74
2023/02/26 15:18:45;;;;;;;0.70;0.70;;;;;;;5.39;36.03;98078.59;8382779;28;20233;-75
2023/02/26 15:23:05;;;;;;;1.10;0.80;;;;;;;5.79;35.90;98082.03;8382169;28;20244;-74
2023/02/26 15:27:14;;;;;;;0.80;0.60;;;;;;;6.07;34.49;98092.50;8382510;28;20221;-74
2023/02/26 15:31:19;;;;;;;0.83;0.60;;;;;;;5.71;35.46;98095.00;8382785;28;20225;-75
2023/02/26 15:35:23;;;;;;;1.00;0.87;;;;;;;4.85;36.96;98092.53;8382733;28;20240;-74
2023/02/26 15:39:27;;;;;;;0.83;0.70;;;;;;;5.21;36.90;98110.63;8382559;28;20568;-73
2023/02/26 15:43:31;;;;;;;2.10;1.90;;;;;;;4.89;35.73;98109.56;8382183;28;20231;-75
2023/02/26 15:47:34;;;;;;;0.57;0.57;;;;;;;5.31;35.52;98085.59;8382338;28;20267;-75
2023/02/26 15:51:37;;;;;;;1.23;0.67;;;;;;;5.01;35.32;98120.50;8381843;28;20234;-75
2023/02/26 15:55:47;;;;;;;1.57;1.43;;;;;;;5.20;35.32;98119.25;8381017;28;20217;-76
2023/02/26 15:59:53;;;;;;;1.53;1.20;;;;;;;5.51;35.27;98128.88;8380174;28;20229;-74
2023/02/26 16:03:57;;;;;;;0.63;0.60;;;;;;;5.78;35.10;98129.97;8381548;28;20224;-74
2023/02/26 16:08:00;;;;;;;1.00;0.63;;;;;;;5.41;35.15;98133.34;8381371;28;20227;-76
2023/02/26 16:12:06;;;;;;;0.60;0.53;;;;;;;5.08;35.54;98066.44;8381161;28;20227;-74
2023/02/26 16:16:13;;;;;;;0.93;0.80;;;;;;;5.42;36.25;98136.75;8380762;28;20221;-74
2023/02/26 16:20:18;;;;;;;1.20;0.57;;;;;;;5.45;36.90;98150.38;8381122;28;20509;-74
2023/02/26 16:24:22;;;;;;;0.97;0.67;;;;;;;4.73;37.39;98148.38;8381294;28;20275;-74
2023/02/26 16:28:29;;;;;;;0.67;0.60;;;;;;;5.46;37.38;98158.94;8380395;28;20228;-76
2023/02/26 16:32:34;;;;;;;0.70;0.70;;;;;;;4.57;37.41;98074.25;8379804;28;20316;-76
2023/02/26 16:36:40;;;;;;;1.03;0.73;;;;;;;4.64;37.33;98177.59;8378793;28;20225;-75
2023/02/26 16:40:45;;;;;;;1.53;0.93;;;;;;;5.36;37.04;98175.41;8379319;28;20233;-76
2023/02/26 16:44:52;;;;;;;0.47;0.47;;;;;;;4.98;37.17;98197.53;8380144;28;20232;-76
2023/02/26 16:49:00;;;;;;;1.90;1.80;;;;;;;5.16;37.72;98193.75;8379730;28;20288;-76
2023/02/26 16:53:07;;;;;;;3.00;2.30;;;;;;;5.41;37.13;98205.28;8379898;28;20236;-76
2023/02/26 16:57:13;;;;;;;1.07;0.80;;;;;;;5.37;37.27;98211.34;8377308;28;20233;-76
2023/02/26 17:01:19;;;;;;;1.37;0.87;;;;;;;5.16;37.78;98180.94;8378116;28;20229;-76
2023/02/26 17:05:24;;;;;;;2.30;0.90;;;;;;;4.28;38.67;98134.59;8377831;28;20225;-76
2023/02/26 17:09:37;;;;;;;1.17;0.80;;;;;;;4.45;38.44;98200.97;8361423;28;20253;-76
2023/02/26 17:13:42;;;;;;;1.23;0.70;;;;;;;4.36;39.05;98236.16;8379162;28;20536;-76
2023/02/26 17:17:45;;;;;;;1.80;1.30;;;;;;;4.93;38.10;98232.69;8376614;28;20225;-74
2023/02/26 17:21:52;;;;;;;9.10;7.30;;;;;;;4.83;38.47;98240.53;8379121;28;20225;-74
2023/02/26 17:26:01;;;;;;;1.40;1.30;;;;;;;4.88;38.22;98228.50;8378216;28;20306;-73
2023/02/26 17:30:06;;;;;;;2.80;0.90;;;;;;;5.12;38.33;98251.19;8379313;28;20315;-72
2023/02/26 17:34:10;;;;;;;1.93;1.10;;;;;;;4.70;38.83;98249.31;8377932;28;20521;-74
2023/02/26 17:38:15;;;;;;;1.77;1.50;;;;;;;4.80;39.01;98262.88;8378762;28;20237;-75
2023/02/26 17:42:20;;;;;;;2.67;1.17;;;;;;;4.65;39.17;98274.22;8378537;28;20528;-75
2023/02/26 17:46:23;;;;;;;1.47;1.10;;;;;;;4.67;39.54;98246.81;8377510;28;20244;-75
2023/02/26 17:50:33;;;;;;;1.67;1.10;;;;;;;4.56;40.04;98276.91;8378122;28;20405;-75
2023/02/26 17:54:38;;;;;;;1.40;1.00;;;;;;;4.78;39.20;98283.41;8377965;28;20224;-74
2023/02/26 17:58:41;;;;;;;1.13;1.03;;;;;;;4.26;40.04;98253.41;8378252;28;20229;-76
2023/02/26 18:02:44;;;;;;;2.10;1.40;;;;;;;4.21;40.49;98288.53;8377935;28;20221;-77
2023/02/26 18:06:47;;;;;;;1.13;0.97;;;;;;;4.62;39.95;98267.41;8378458;28;20513;-73
2023/02/26 18:10:51;;;;;;;1.87;0.90;;;;;;;4.04;40.81;98214.44;8377837;28;20422;-74
2023/02/26 18:14:54;;;;;;;2.80;1.07;;;;;;;4.60;40.15;98297.34;8378039;28;20245;-71
2023/02/26 18:18:58;;;;;;;1.27;0.93;;;;;;;4.16;40.34;98293.72;8377693;28;20248;-72
2023/02/26 18:23:01;;;;;;;1.10;1.00;;;;;;;4.54;39.68;98305.16;8377828;28;22165;-73
2023/02/26 18:27:05;;;;;;;1.77;1.13;;;;;;;4.26;39.69;98300.41;8378080;28;20229;-73
2023/02/26 18:31:09;;;;;;;1.10;0.93;;;;;;;4.37;39.91;98310.53;8378004;28;20225;-70
2023/02/26 18:35:12;;;;;;;1.70;1.50;;;;;;;4.09;40.53;98310.03;8377871;28;20225;-72
2023/02/26 18:39:19;;;;;;;1.57;1.20;;;;;;;4.12;40.36;98317.69;8366081;28;20237;-72
2023/02/26 18:43:30;;;;;;;9.80;1.87;;;;;;;7.16;72.69;98329.19;8383835;28;20231;-73
2023/02/26 18:47:33;;;;;;;3.27;1.00;;;;;;;8.51;44.37;98331.53;8383653;28;20221;-74
2023/02/26 18:51:36;;;;;;;1.40;1.30;;;;;;;4.94;40.54;98324.22;8384133;28;20237;-74
2023/02/26 18:55:39;;;;;;;1.80;1.40;;;;;;;5.33;39.60;98327.00;8383954;28;20232;-74
2023/02/26 18:59:43;;;;;;;1.60;1.50;;;;;;;5.05;39.90;98343.72;8383966;28;20392;-74
2023/02/26 19:03:46;;;;;;;3.30;2.00;;;;;;;4.25;40.83;98344.88;8383366;28;20225;-74
2023/02/26 19:07:49;;;;;;;2.50;1.03;;;;;;;4.08;41.21;98339.94;8383186;28;20231;-74
2023/02/26 19:11:52;;;;;;;1.67;1.37;;;;;;;3.87;41.71;98351.31;8383232;28;20244;-72
2023/02/26 19:15:59;;;;;;;1.57;1.00;;;;;;;3.84;41.86;98343.63;8382821;28;20233;-73
2023/02/26 19:20:02;;;;;;;2.63;0.93;;;;;;;3.71;41.83;98329.28;8381880;28;20292;-72
2023/02/26 19:24:07;;;;;;;1.53;1.07;;;;;;;3.76;41.49;98350.56;8383026;28;20229;-73
2023/02/26 19:28:09;;;;;;;1.80;1.40;;;;;;;4.03;40.84;98339.16;8383056;28;20227;-72
2023/02/26 19:32:14;;;;;;;6.57;3.90;;;;;;;3.92;40.90;98349.56;8382693;28;20403;-73
2023/02/26 19:36:20;;;;;;;13.30;6.87;;;;;;;3.89;41.38;98351.28;8383087;28;20227;-72